Hua Heng 167 — BIAK3 — position and weather

sailwx.info

Track history (hours):
 
Tides and Currents Weather Stations Pressure Air Temp Water Temp Dewpoint Dewpoint Depression Visibility Wind Speed Wind Dir Waves Ship Positions

Hua Heng 167

Last reported at 2017-Feb-18 04:25 UTC. Time now 2017-Feb-21 18:53 UTC.
Position N 38°17' E 121°23'.

Length 189 m; draft 12.8 m.

Type: Cargo ship. MMSI: 413376470.

Date/timePositionNaut miles runAvg speedWind from/ knotsBaromVisibWave heightAir tempDewpointWater temp
2017-Feb-18 04:25N 38°17' E 121°23'1411.9
2017-Feb-18 03:17N 38°25' E 121°10'912.0
2017-Feb-18 02:33N 38°30' E 121°00'1111.1
2017-Feb-18 01:33N 38°36' E 120°48'  
2017-Feb-13 05:10N 38°36' E 120°57'812.9
2017-Feb-13 04:32N 38°31' E 121°06'45011.8
2017-Feb-11 14:27N 31°06' E 122°22'910.1
2017-Feb-11 13:33N 31°10' E 122°12'1212.3
2017-Feb-11 12:34N 31°15' E 121°59'1514.7
2017-Feb-11 11:33N 31°19' E 121°43'1211.8
2017-Feb-11 10:33N 31°25' E 121°31'1211.6
2017-Feb-11 09:33N 31°33' E 121°20'6 5.3
2017-Feb-11 08:29N 31°38' E 121°17'0 0.2
2017-Feb-11 07:29N 31°38' E 121°17'0 0.1
2017-Feb-11 06:29N 31°38' E 121°17'0 0.0
2017-Feb-11 05:29N 31°38' E 121°17'0 0.0
2017-Feb-11 04:32N 31°38' E 121°17'0 0.1
2017-Feb-11 03:23N 31°38' E 121°17'0 0.3
2017-Feb-11 02:32N 31°38' E 121°17'0 0.0
2017-Feb-11 01:32N 31°37' E 121°17'0 0.0
2017-Feb-11 00:29N 31°37' E 121°17'0 0.0
2017-Feb-10 23:32N 31°37' E 121°17'0 0.0
2017-Feb-10 22:29N 31°37' E 121°17'0 0.0
2017-Feb-10 21:32N 31°37' E 121°17'0 0.1
2017-Feb-10 20:32N 31°37' E 121°17'0 0.0
2017-Feb-10 19:32N 31°37' E 121°17'0 0.3
2017-Feb-10 18:32N 31°38' E 121°17'0 0.0
2017-Feb-10 17:32N 31°38' E 121°17'0 0.0
2017-Feb-10 16:32N 31°38' E 121°17'0 0.1
2017-Feb-10 15:29N 31°38' E 121°17'0 0.2
2017-Feb-10 14:32N 31°37' E 121°17'0 0.0
2017-Feb-10 13:23N 31°37' E 121°17'0 0.0
2017-Feb-10 12:32N 31°37' E 121°17'0 0.0
2017-Feb-10 11:32N 31°37' E 121°17'0 0.0
2017-Feb-10 10:32N 31°37' E 121°17'0 0.0
2017-Feb-10 09:32N 31°37' E 121°17'0 0.0
2017-Feb-10 08:32N 31°37' E 121°17'0 0.0
2017-Feb-10 07:32N 31°37' E 121°17'0 0.2
2017-Feb-10 06:32N 31°38' E 121°17'0 0.0
2017-Feb-10 05:32N 31°38' E 121°17'0 0.1
2017-Feb-10 04:29N 31°38' E 121°17'0 0.0
2017-Feb-10 03:32N 31°38' E 121°17'0 0.2
2017-Feb-10 02:29N 31°38' E 121°17'0 0.2
2017-Feb-10 01:32N 31°37' E 121°17'0 0.0
2017-Feb-10 00:29N 31°37' E 121°17'0 0.0
2017-Feb-09 23:32N 31°37' E 121°17'0 0.0
2017-Feb-09 22:32N 31°37' E 121°17'0 0.0
2017-Feb-09 21:32N 31°37' E 121°17'0 0.0
2017-Feb-09 20:32N 31°37' E 121°17'0 0.0
2017-Feb-09 19:31N 31°37' E 121°17'0 0.2
2017-Feb-09 18:32N 31°38' E 121°17'0 0.1
2017-Feb-09 17:32N 31°38' E 121°17'0 0.1
2017-Feb-09 16:32N 31°38' E 121°17'0 0.1
2017-Feb-09 15:32N 31°38' E 121°17'0 0.2
2017-Feb-09 14:32N 31°37' E 121°17'0 0.1
2017-Feb-09 13:32N 31°37' E 121°17'0 0.0
2017-Feb-09 12:26N 31°37' E 121°17'0 0.0
2017-Feb-09 11:31N 31°37' E 121°17'0 0.0
2017-Feb-09 10:26N 31°37' E 121°17'0 0.1
2017-Feb-09 09:32N 31°37' E 121°17'0 0.1
2017-Feb-09 08:31N 31°37' E 121°17'0 0.0
2017-Feb-09 07:31N 31°37' E 121°17'0 0.1
2017-Feb-09 06:31N 31°38' E 121°17'0 0.2
2017-Feb-09 05:31N 31°38' E 121°17'0 0.0
2017-Feb-09 04:28N 31°38' E 121°17'0 0.0
2017-Feb-09 03:31N 31°38' E 121°17'0 0.2
2017-Feb-09 02:31N 31°38' E 121°17'0 0.3
2017-Feb-09 01:31N 31°37' E 121°17'0 0.1
2017-Feb-09 00:31N 31°37' E 121°17'0 0.2
2017-Feb-08 23:31N 31°38' E 121°17'0 0.3
2017-Feb-08 22:28N 31°37' E 121°17'1 1.4
2017-Feb-08 21:33N 31°36' E 121°18'7 6.9
2017-Feb-08 20:33N 31°31' E 121°24'7 7.2
2017-Feb-08 19:33N 31°26' E 121°30'9 8.8
2017-Feb-08 18:33N 31°22' E 121°38'9 8.9
2017-Feb-08 17:33N 31°18' E 121°48'10 9.5
2017-Feb-08 16:33N 31°15' E 121°58'9 9.4
2017-Feb-08 15:33N 31°12' E 122°09'10 9.7
2017-Feb-08 14:32N 31°06' E 122°18'12 6.3
2017-Feb-08 12:33N 31°12' E 122°31'  
Track history (hours):
 
Tides and Currents Weather Stations Pressure Air Temp Water Temp Dewpoint Dewpoint Depression Visibility Wind Speed Wind Dir Waves Ship Positions

Hua Heng 167

Last reported at 2017-Feb-18 04:25 UTC. Time now 2017-Feb-21 18:53 UTC.
Position N 38°17' E 121°23'.

Length 189 m; draft 12.8 m.

Type: Cargo ship. MMSI: 413376470.

Date/timePositionNaut miles runAvg speedWind from/ knotsBaromVisibWave heightAir tempDewpointWater temp
2017-Feb-18 04:25N 38°17' E 121°23'1411.9
2017-Feb-18 03:17N 38°25' E 121°10'912.0
2017-Feb-18 02:33N 38°30' E 121°00'1111.1
2017-Feb-18 01:33N 38°36' E 120°48'  
2017-Feb-13 05:10N 38°36' E 120°57'812.9
2017-Feb-13 04:32N 38°31' E 121°06'45011.8
2017-Feb-11 14:27N 31°06' E 122°22'910.1
2017-Feb-11 13:33N 31°10' E 122°12'1212.3
2017-Feb-11 12:34N 31°15' E 121°59'1514.7
2017-Feb-11 11:33N 31°19' E 121°43'1211.8
2017-Feb-11 10:33N 31°25' E 121°31'1211.6
2017-Feb-11 09:33N 31°33' E 121°20'6 5.3
2017-Feb-11 08:29N 31°38' E 121°17'0 0.2
2017-Feb-11 07:29N 31°38' E 121°17'0 0.1
2017-Feb-11 06:29N 31°38' E 121°17'0 0.0
2017-Feb-11 05:29N 31°38' E 121°17'0 0.0
2017-Feb-11 04:32N 31°38' E 121°17'0 0.1
2017-Feb-11 03:23N 31°38' E 121°17'0 0.3
2017-Feb-11 02:32N 31°38' E 121°17'0 0.0
2017-Feb-11 01:32N 31°37' E 121°17'0 0.0
2017-Feb-11 00:29N 31°37' E 121°17'0 0.0
2017-Feb-10 23:32N 31°37' E 121°17'0 0.0
2017-Feb-10 22:29N 31°37' E 121°17'0 0.0
2017-Feb-10 21:32N 31°37' E 121°17'0 0.1
2017-Feb-10 20:32N 31°37' E 121°17'0 0.0
2017-Feb-10 19:32N 31°37' E 121°17'0 0.3
2017-Feb-10 18:32N 31°38' E 121°17'0 0.0
2017-Feb-10 17:32N 31°38' E 121°17'0 0.0
2017-Feb-10 16:32N 31°38' E 121°17'0 0.1
2017-Feb-10 15:29N 31°38' E 121°17'0 0.2
2017-Feb-10 14:32N 31°37' E 121°17'0 0.0
2017-Feb-10 13:23N 31°37' E 121°17'0 0.0
2017-Feb-10 12:32N 31°37' E 121°17'0 0.0
2017-Feb-10 11:32N 31°37' E 121°17'0 0.0
2017-Feb-10 10:32N 31°37' E 121°17'0 0.0
2017-Feb-10 09:32N 31°37' E 121°17'0 0.0
2017-Feb-10 08:32N 31°37' E 121°17'0 0.0
2017-Feb-10 07:32N 31°37' E 121°17'0 0.2
2017-Feb-10 06:32N 31°38' E 121°17'0 0.0
2017-Feb-10 05:32N 31°38' E 121°17'0 0.1
2017-Feb-10 04:29N 31°38' E 121°17'0 0.0
2017-Feb-10 03:32N 31°38' E 121°17'0 0.2
2017-Feb-10 02:29N 31°38' E 121°17'0 0.2
2017-Feb-10 01:32N 31°37' E 121°17'0 0.0
2017-Feb-10 00:29N 31°37' E 121°17'0 0.0
2017-Feb-09 23:32N 31°37' E 121°17'0 0.0
2017-Feb-09 22:32N 31°37' E 121°17'0 0.0
2017-Feb-09 21:32N 31°37' E 121°17'0 0.0
2017-Feb-09 20:32N 31°37' E 121°17'0 0.0
2017-Feb-09 19:31N 31°37' E 121°17'0 0.2
2017-Feb-09 18:32N 31°38' E 121°17'0 0.1
2017-Feb-09 17:32N 31°38' E 121°17'0 0.1
2017-Feb-09 16:32N 31°38' E 121°17'0 0.1
2017-Feb-09 15:32N 31°38' E 121°17'0 0.2
2017-Feb-09 14:32N 31°37' E 121°17'0 0.1
2017-Feb-09 13:32N 31°37' E 121°17'0 0.0
2017-Feb-09 12:26N 31°37' E 121°17'0 0.0
2017-Feb-09 11:31N 31°37' E 121°17'0 0.0
2017-Feb-09 10:26N 31°37' E 121°17'0 0.1
2017-Feb-09 09:32N 31°37' E 121°17'0 0.1
2017-Feb-09 08:31N 31°37' E 121°17'0 0.0
2017-Feb-09 07:31N 31°37' E 121°17'0 0.1
2017-Feb-09 06:31N 31°38' E 121°17'0 0.2
2017-Feb-09 05:31N 31°38' E 121°17'0 0.0
2017-Feb-09 04:28N 31°38' E 121°17'0 0.0
2017-Feb-09 03:31N 31°38' E 121°17'0 0.2
2017-Feb-09 02:31N 31°38' E 121°17'0 0.3
2017-Feb-09 01:31N 31°37' E 121°17'0 0.1
2017-Feb-09 00:31N 31°37' E 121°17'0 0.2
2017-Feb-08 23:31N 31°38' E 121°17'0 0.3
2017-Feb-08 22:28N 31°37' E 121°17'1 1.4
2017-Feb-08 21:33N 31°36' E 121°18'7 6.9
2017-Feb-08 20:33N 31°31' E 121°24'7 7.2
2017-Feb-08 19:33N 31°26' E 121°30'9 8.8
2017-Feb-08 18:33N 31°22' E 121°38'9 8.9
2017-Feb-08 17:33N 31°18' E 121°48'10 9.5
2017-Feb-08 16:33N 31°15' E 121°58'9 9.4
2017-Feb-08 15:33N 31°12' E 122°09'10 9.7
2017-Feb-08 14:32N 31°06' E 122°18'12 6.3
2017-Feb-08 12:33N 31°12' E 122°31'  

Dump ship's entire track history